Time;durP1;ratioP1;P1;durP2;ratioP2;P2;SDS_P1;SDS_P2;PMS_P1;PMS_P2;Temp;Humidity;BMP_temperature;BMP_pressure;BME280_temperature;BME280_humidity;BME280_pressure;Samples;Min_cycle;Max_cycle;Signal;HPM_P1;HPM_P2
2023/09/19 00:01:12;;;;;;;;;;;28.50;58.20;;;;;;5075500;28;19954;-67
2023/09/19 00:03:38;;;;;;;;;;;28.60;58.00;;;;;;5075566;28;19916;-68
2023/09/19 00:06:07;;;;;;;;;;;28.70;57.80;;;;;;5075845;28;20457;-70
2023/09/19 00:08:37;;;;;;;;;;;28.90;57.20;;;;;;5075719;28;20375;-67
2023/09/19 00:11:04;;;;;;;;;;;29.00;56.20;;;;;;5075463;28;20428;-67
2023/09/19 00:13:31;;;;;;;;;;;29.00;56.00;;;;;;5075560;28;20087;-70
2023/09/19 00:15:58;;;;;;;;;;;29.10;55.80;;;;;;5075544;28;20383;-70
2023/09/19 00:18:29;;;;;;;;;;;29.10;56.20;;;;;;5074450;28;20002;-68
2023/09/19 00:20:58;;;;;;;;;;;29.30;55.70;;;;;;5075511;28;19909;-68
2023/09/19 00:23:25;;;;;;;;;;;29.30;55.70;;;;;;5075438;28;19908;-68
2023/09/19 00:25:52;;;;;;;;;;;29.50;54.90;;;;;;5075093;28;19951;-70
2023/09/19 00:28:19;;;;;;;;;;;29.50;55.20;;;;;;5075090;28;19913;-69
2023/09/19 00:30:52;;;;;;;;;;;29.60;54.70;;;;;;5073760;28;19909;-68
2023/09/19 00:33:19;;;;;;;;;;;29.70;54.50;;;;;;5075195;28;19962;-70
2023/09/19 00:35:49;;;;;;;;;;;29.70;54.10;;;;;;5075246;28;19908;-70
2023/09/19 00:38:18;;;;;;;;;;;29.70;54.40;;;;;;5074937;28;19962;-68
2023/09/19 00:40:48;;;;;;;;;;;29.90;54.60;;;;;;5074874;28;20273;-70
2023/09/19 00:43:14;;;;;;;;;;;30.00;54.90;;;;;;5074970;28;19916;-67
2023/09/19 00:45:45;;;;;;;;;;;30.20;54.60;;;;;;5074950;28;19935;-70
2023/09/19 00:48:12;;;;;;;;;;;30.20;54.30;;;;;;5074647;28;19966;-67
2023/09/19 00:50:41;;;;;;;;;;;30.30;53.60;;;;;;5074794;28;19909;-67
2023/09/19 00:53:09;;;;;;;;;;;30.40;53.40;;;;;;5074674;28;19965;-66
2023/09/19 00:55:42;;;;;;;;;;;30.40;53.50;;;;;;5074647;28;20285;-68
2023/09/19 00:58:10;;;;;;;;;;;30.60;53.90;;;;;;5074506;28;19916;-67
2023/09/19 01:00:37;;;;;;;;;;;30.70;53.60;;;;;;5074716;28;19909;-69
2023/09/19 01:03:04;;;;;;;;;;;30.80;53.20;;;;;;5074620;28;19909;-67
2023/09/19 01:05:31;;;;;;;;;;;30.90;52.80;;;;;;5074663;28;19908;-66
2023/09/19 01:07:58;;;;;;;;;;;31.00;53.10;;;;;;5074759;28;20000;-66
2023/09/19 01:10:25;;;;;;;;;;;31.00;53.50;;;;;;5074510;28;19912;-69
2023/09/19 01:13:08;;;;;;;;;;;31.20;52.90;;;;;;5074782;28;20270;-66
2023/09/19 01:15:40;;;;;;;;;;;31.40;53.20;;;;;;5074425;28;19909;-67
2023/09/19 01:18:07;;;;;;;;;;;31.50;52.60;;;;;;5074168;28;20425;-68
2023/09/19 01:20:37;;;;;;;;;;;31.70;52.20;;;;;;5074234;28;19908;-68
2023/09/19 01:23:24;;;;;;;;;;;31.70;51.80;;;;;;5074201;28;19916;-70
2023/09/19 01:26:09;;;;;;;;;;;31.70;51.30;;;;;;5073750;28;19936;-71
2023/09/19 01:29:01;;;;;;;;;;;31.90;52.30;;;;;;5073459;28;19916;-69
2023/09/19 01:31:33;;;;;;;;;;;32.10;52.10;;;;;;5074022;28;19961;-67
2023/09/19 01:34:01;;;;;;;;;;;32.20;51.30;;;;;;5074057;28;19995;-69
2023/09/19 01:36:29;;;;;;;;;;;32.30;51.40;;;;;;5073741;28;19916;-71
2023/09/19 01:38:58;;;;;;;;;;;32.50;51.10;;;;;;5073707;28;19936;-73
2023/09/19 01:41:29;;;;;;;;;;;32.50;50.90;;;;;;5073823;28;19913;-68
2023/09/19 01:43:56;;;;;;;;;;;32.70;50.60;;;;;;5073922;28;19908;-68
2023/09/19 01:46:25;;;;;;;;;;;32.80;51.00;;;;;;5072406;28;20277;-70
2023/09/19 01:48:56;;;;;;;;;;;33.00;50.30;;;;;;5073399;28;20009;-68
2023/09/19 01:51:31;;;;;;;;;;;33.10;50.50;;;;;;5073755;28;19908;-71
2023/09/19 01:54:03;;;;;;;;;;;33.20;50.30;;;;;;5073589;28;19916;-68
2023/09/19 01:56:35;;;;;;;;;;;33.40;50.80;;;;;;5073443;28;19951;-67
2023/09/19 01:59:10;;;;;;;;;;;33.60;49.40;;;;;;5073576;28;20603;-66
2023/09/19 02:01:37;;;;;;;;;;;33.70;49.80;;;;;;5073217;28;19909;-70
2023/09/19 02:04:04;;;;;;;;;;;34.00;50.90;;;;;;5073231;28;19908;-67
2023/09/19 02:06:31;;;;;;;;;;;34.10;49.10;;;;;;5073306;28;20345;-71
2023/09/19 02:08:59;;;;;;;;;;;34.20;49.90;;;;;;5073235;28;20003;-72
2023/09/19 02:11:26;;;;;;;;;;;34.40;49.60;;;;;;5073131;28;19912;-70
2023/09/19 02:13:54;;;;;;;;;;;34.60;49.70;;;;;;5072071;28;19912;-70
2023/09/19 02:16:21;;;;;;;;;;;34.80;49.30;;;;;;5073243;28;20281;-72
2023/09/19 02:18:51;;;;;;;;;;;34.90;48.60;;;;;;5073012;28;19916;-71
2023/09/19 02:21:18;;;;;;;;;;;34.90;48.20;;;;;;5072859;28;20453;-70
2023/09/19 02:23:45;;;;;;;;;;;34.90;49.10;;;;;;5073054;28;20372;-70
2023/09/19 02:26:13;;;;;;;;;;;35.10;48.60;;;;;;5071530;28;19935;-66
2023/09/19 02:28:40;;;;;;;;;;;35.20;49.60;;;;;;5088947;28;20414;-68
2023/09/19 02:31:07;;;;;;;;;;;35.30;47.90;;;;;;5088576;28;19912;-71
2023/09/19 02:33:35;;;;;;;;;;;35.40;47.60;;;;;;5090692;28;19913;-69
2023/09/19 02:36:04;;;;;;;;;;;35.40;46.30;;;;;;5078767;28;20002;-68
2023/09/19 02:38:31;;;;;;;;;;;35.60;46.10;;;;;;5090535;28;19965;-71
2023/09/19 02:40:59;;;;;;;;;;;35.90;45.50;;;;;;5091423;28;19927;-67
2023/09/19 02:43:25;;;;;;;;;;;36.20;45.20;;;;;;5092387;28;19908;-73
2023/09/19 02:45:55;;;;;;;;;;;37.00;45.50;;;;;;5081155;28;19935;-69
2023/09/19 02:48:21;;;;;;;;;;;37.90;44.50;;;;;;5092082;28;19931;-71
2023/09/19 02:50:51;;;;;;;;;;;38.50;44.30;;;;;;5091641;28;19912;-75
2023/09/19 02:53:18;;;;;;;;;;;39.40;44.10;;;;;;5079683;28;19939;-74
2023/09/19 02:55:46;;;;;;;;;;;40.00;43.30;;;;;;5086550;28;19913;-68
2023/09/19 02:58:14;;;;;;;;;;;40.80;42.90;;;;;;5092195;28;20746;-69
2023/09/19 03:00:47;;;;;;;;;;;41.20;42.20;;;;;;5086820;28;19958;-72
2023/09/19 03:03:15;;;;;;;;;;;41.80;43.90;;;;;;5079848;28;19920;-68
2023/09/19 03:05:46;;;;;;;;;;;42.70;42.60;;;;;;5087188;28;20018;-69
2023/09/19 03:08:16;;;;;;;;;;;43.70;41.60;;;;;;5075104;28;19970;-69
2023/09/19 03:10:44;;;;;;;;;;;44.00;40.50;;;;;;5091655;28;20358;-68
2023/09/19 03:13:10;;;;;;;;;;;44.00;40.80;;;;;;5090130;28;19918;-71
2023/09/19 03:15:41;;;;;;;;;;;44.30;40.20;;;;;;5091309;28;20284;-72
2023/09/19 03:18:07;;;;;;;;;;;44.10;40.20;;;;;;5087126;28;19927;-69
2023/09/19 03:20:34;;;;;;;;;;;44.30;40.10;;;;;;5092137;28;20339;-71
2023/09/19 03:23:01;;;;;;;;;;;44.40;40.40;;;;;;5091632;28;19908;-69
2023/09/19 03:25:28;;;;;;;;;;;44.40;39.60;;;;;;5092208;28;20359;-73
2023/09/19 03:27:57;;;;;;;;;;;44.10;40.00;;;;;;5073868;28;20353;-69
2023/09/19 03:30:24;;;;;;;;;;;44.00;40.60;;;;;;5083434;28;19920;-69
2023/09/19 03:32:51;;;;;;;;;;;44.60;40.10;;;;;;5080552;28;19972;-69
2023/09/19 03:35:18;;;;;;;;;;;44.50;39.80;;;;;;5087985;28;19912;-71
2023/09/19 03:37:44;;;;;;;;;;;45.00;40.50;;;;;;5083560;28;20317;-71
2023/09/19 03:40:11;;;;;;;;;;;45.80;39.50;;;;;;5090086;28;20421;-69
2023/09/19 03:42:42;;;;;;;;;;;45.80;39.40;;;;;;5083158;28;19921;-70
2023/09/19 03:45:12;;;;;;;;;;;46.50;40.00;;;;;;5085957;28;19999;-70
2023/09/19 03:47:40;;;;;;;;;;;46.30;39.20;;;;;;5085563;28;19920;-70
2023/09/19 03:50:15;;;;;;;;;;;45.90;38.40;;;;;;5079803;28;19974;-72
2023/09/19 03:52:42;;;;;;;;;;;45.70;38.90;;;;;;5084995;28;19953;-70
2023/09/19 03:55:09;;;;;;;;;;;45.10;38.70;;;;;;5093832;28;20292;-68
2023/09/19 03:57:36;;;;;;;;;;;44.60;39.60;;;;;;5091997;28;20002;-67
2023/09/19 04:00:05;;;;;;;;;;;45.10;38.90;;;;;;5088371;28;19909;-69
2023/09/19 04:02:33;;;;;;;;;;;45.60;38.50;;;;;;5089053;28;20007;-68
2023/09/19 04:04:59;;;;;;;;;;;45.90;38.70;;;;;;5091662;28;20312;-71
2023/09/19 04:07:28;;;;;;;;;;;47.00;38.80;;;;;;5093634;28;19919;-70
2023/09/19 04:09:55;;;;;;;;;;;47.10;38.00;;;;;;5081824;28;19915;-68
2023/09/19 04:12:22;;;;;;;;;;;46.30;37.80;;;;;;5094942;28;19962;-69
2023/09/19 04:14:50;;;;;;;;;;;45.20;39.00;;;;;;5094050;28;20365;-68
2023/09/19 04:17:16;;;;;;;;;;;44.90;38.50;;;;;;5094522;28;20411;-67
2023/09/19 04:19:45;;;;;;;;;;;45.20;38.50;;;;;;5095002;28;20004;-67
2023/09/19 04:22:12;;;;;;;;;;;45.20;38.50;;;;;;5093765;28;19916;-68
2023/09/19 04:24:39;;;;;;;;;;;45.70;38.80;;;;;;5094722;28;20353;-68
2023/09/19 04:27:07;;;;;;;;;;;45.50;38.00;;;;;;5094554;28;20273;-69
2023/09/19 04:29:33;;;;;;;;;;;45.60;38.50;;;;;;5094578;28;19909;-70
2023/09/19 04:32:00;;;;;;;;;;;46.40;38.40;;;;;;5094396;28;19911;-68
2023/09/19 04:34:27;;;;;;;;;;;46.80;38.80;;;;;;5093504;28;19908;-67
2023/09/19 04:36:53;;;;;;;;;;;47.40;38.60;;;;;;5088802;28;19923;-70
2023/09/19 04:39:20;;;;;;;;;;;47.40;38.50;;;;;;5074154;28;19920;-68
2023/09/19 04:41:47;;;;;;;;;;;47.00;37.70;;;;;;5074163;28;19912;-67
2023/09/19 04:44:14;;;;;;;;;;;46.60;37.80;;;;;;5081470;28;19912;-68
2023/09/19 04:46:41;;;;;;;;;;;46.30;37.90;;;;;;5086321;28;19954;-70
2023/09/19 04:49:13;;;;;;;;;;;46.60;38.30;;;;;;5092477;28;20400;-69
2023/09/19 04:51:40;;;;;;;;;;;46.70;37.90;;;;;;5066334;28;19917;-74
2023/09/19 04:54:07;;;;;;;;;;;46.20;37.80;;;;;;5091331;28;19915;-73
2023/09/19 04:56:34;;;;;;;;;;;45.50;38.10;;;;;;5088367;28;19916;-74
2023/09/19 04:59:00;;;;;;;;;;;45.90;38.20;;;;;;5082031;28;19908;-72
2023/09/19 05:01:27;;;;;;;;;;;46.10;39.50;;;;;;5091695;28;19919;-70
2023/09/19 05:03:54;;;;;;;;;;;46.20;37.60;;;;;;5089524;28;19913;-72
2023/09/19 05:06:23;;;;;;;;;;;45.60;37.70;;;;;;5074594;28;19920;-72
2023/09/19 05:08:53;;;;;;;;;;;46.10;39.20;;;;;;5083276;28;19920;-68
2023/09/19 05:11:21;;;;;;;;;;;46.00;37.60;;;;;;5087321;28;20014;-69
2023/09/19 05:13:49;;;;;;;;;;;45.20;37.80;;;;;;5092551;28;19923;-71
2023/09/19 05:16:16;;;;;;;;;;;44.80;38.30;;;;;;5087922;28;19913;-68
2023/09/19 05:18:43;;;;;;;;;;;45.60;39.40;;;;;;5083719;28;19978;-70
2023/09/19 05:21:10;;;;;;;;;;;46.40;38.00;;;;;;5093273;28;19999;-73
2023/09/19 05:23:36;;;;;;;;;;;45.90;38.20;;;;;;5092516;28;19915;-69
2023/09/19 05:26:05;;;;;;;;;;;46.10;43.00;;;;;;5089935;28;19959;-71
2023/09/19 05:28:34;;;;;;;;;;;46.70;43.20;;;;;;5083839;28;19954;-73
2023/09/19 05:31:04;;;;;;;;;;;45.90;44.00;;;;;;5091917;28;20020;-72
2023/09/19 05:33:31;;;;;;;;;;;44.80;46.20;;;;;;5087930;28;19947;-70
2023/09/19 05:35:58;;;;;;;;;;;45.10;46.10;;;;;;5075192;28;20452;-68
2023/09/19 05:38:26;;;;;;;;;;;43.70;46.80;;;;;;5088136;28;20296;-67
2023/09/19 05:40:52;;;;;;;;;;;43.50;47.00;;;;;;5092851;28;19908;-70
2023/09/19 05:43:19;;;;;;;;;;;43.40;46.50;;;;;;5086170;28;20391;-69
2023/09/19 05:45:45;;;;;;;;;;;42.70;47.80;;;;;;5076414;28;20272;-68
2023/09/19 05:48:15;;;;;;;;;;;43.00;47.90;;;;;;5089005;28;19928;-69
2023/09/19 05:50:42;;;;;;;;;;;42.20;48.30;;;;;;5091275;28;19919;-68
2023/09/19 05:53:12;;;;;;;;;;;40.30;50.10;;;;;;5089081;28;19912;-70
2023/09/19 05:55:39;;;;;;;;;;;38.40;51.80;;;;;;5085204;28;19913;-70
2023/09/19 05:58:05;;;;;;;;;;;37.60;52.90;;;;;;5079589;28;19990;-67
2023/09/19 06:00:32;;;;;;;;;;;36.40;54.50;;;;;;5080675;28;19912;-69
2023/09/19 06:02:59;;;;;;;;;;;36.30;54.90;;;;;;5090925;28;19919;-68
2023/09/19 06:05:27;;;;;;;;;;;35.50;56.20;;;;;;5092027;28;19914;-67
2023/09/19 06:07:54;;;;;;;;;;;35.20;56.60;;;;;;5077957;28;20388;-69
2023/09/19 06:10:22;;;;;;;;;;;34.60;57.30;;;;;;5071704;28;19908;-69
2023/09/19 06:12:49;;;;;;;;;;;34.30;58.10;;;;;;5089562;28;19916;-71
2023/09/19 06:15:18;;;;;;;;;;;33.60;59.00;;;;;;5091336;28;20328;-68
2023/09/19 06:17:48;;;;;;;;;;;33.30;59.80;;;;;;5086681;28;19920;-72
2023/09/19 06:20:16;;;;;;;;;;;33.50;59.10;;;;;;5074155;28;19908;-67
2023/09/19 06:22:43;;;;;;;;;;;33.90;58.20;;;;;;5090831;28;19966;-69
2023/09/19 06:25:19;;;;;;;;;;;34.00;58.50;;;;;;5091588;28;20327;-69
2023/09/19 06:27:46;;;;;;;;;;;34.60;57.70;;;;;;5084363;28;20015;-69
2023/09/19 06:30:13;;;;;;;;;;;35.10;57.90;;;;;;5071318;28;19937;-68
2023/09/19 06:32:46;;;;;;;;;;;35.00;59.00;;;;;;5085680;28;20010;-68
2023/09/19 06:35:13;;;;;;;;;;;35.60;57.50;;;;;;5090835;28;19959;-67
2023/09/19 06:37:40;;;;;;;;;;;35.70;58.40;;;;;;5086804;28;19921;-69
2023/09/19 06:40:19;;;;;;;;;;;36.00;57.80;;;;;;5075555;28;19953;-67
2023/09/19 06:42:51;;;;;;;;;;;35.50;58.20;;;;;;5090132;28;20321;-70
2023/09/19 06:45:18;;;;;;;;;;;35.00;57.50;;;;;;5079481;28;19912;-67
2023/09/19 06:47:51;;;;;;;;;;;34.00;59.60;;;;;;5081947;28;20395;-66
2023/09/19 06:50:21;;;;;;;;;;;33.40;60.10;;;;;;5074653;28;19920;-67
2023/09/19 06:52:51;;;;;;;;;;;32.60;60.90;;;;;;5086486;28;19920;-69
2023/09/19 06:55:19;;;;;;;;;;;32.10;61.90;;;;;;5086019;28;20011;-69
2023/09/19 06:57:46;;;;;;;;;;;31.40;62.90;;;;;;5085738;28;19920;-67
2023/09/19 07:00:21;;;;;;;;;;;30.60;64.10;;;;;;5077278;28;19915;-70
2023/09/19 07:02:58;;;;;;;;;;;30.20;65.20;;;;;;5085690;28;19916;-68
2023/09/19 07:05:26;;;;;;;;;;;30.00;65.80;;;;;;5086989;28;20376;-66
2023/09/19 07:07:54;;;;;;;;;;;29.80;65.90;;;;;;5074225;28;19912;-74
2023/09/19 07:10:23;;;;;;;;;;;29.50;66.20;;;;;;5082731;28;19919;-70
2023/09/19 07:12:59;;;;;;;;;;;29.20;67.30;;;;;;5089993;28;19912;-68
2023/09/19 07:15:27;;;;;;;;;;;29.10;67.50;;;;;;5093769;28;20012;-67
2023/09/19 07:17:54;;;;;;;;;;;29.10;67.40;;;;;;5084653;28;19921;-68
2023/09/19 07:20:21;;;;;;;;;;;29.00;67.80;;;;;;5086342;28;19951;-72
2023/09/19 07:22:48;;;;;;;;;;;29.00;68.20;;;;;;5087123;28;19912;-72
2023/09/19 07:25:14;;;;;;;;;;;28.80;68.70;;;;;;5085427;28;20274;-67
2023/09/19 07:27:42;;;;;;;;;;;28.50;69.40;;;;;;5091163;28;19916;-70
2023/09/19 07:30:08;;;;;;;;;;;28.30;70.10;;;;;;5094362;28;19915;-70
2023/09/19 07:32:38;;;;;;;;;;;28.10;70.70;;;;;;5090312;28;19912;-68
2023/09/19 07:35:05;;;;;;;;;;;27.90;71.30;;;;;;5080627;28;20023;-66
2023/09/19 07:37:36;;;;;;;;;;;27.70;71.70;;;;;;5077619;28;20015;-68
2023/09/19 07:40:09;;;;;;;;;;;27.60;71.90;;;;;;5095802;28;20006;-67
2023/09/19 07:42:39;;;;;;;;;;;27.50;72.00;;;;;;5087987;28;19908;-68
2023/09/19 07:45:06;;;;;;;;;;;27.30;72.60;;;;;;5095394;28;20356;-66
2023/09/19 07:47:32;;;;;;;;;;;27.30;72.90;;;;;;5093239;28;19969;-67
2023/09/19 07:50:02;;;;;;;;;;;27.30;72.60;;;;;;5094682;28;19912;-68
2023/09/19 07:52:29;;;;;;;;;;;27.00;73.00;;;;;;5086138;28;20353;-73
2023/09/19 07:54:57;;;;;;;;;;;26.90;73.40;;;;;;5094632;28;19920;-66
2023/09/19 07:57:25;;;;;;;;;;;26.80;73.50;;;;;;5092586;28;20058;-67
2023/09/19 07:59:51;;;;;;;;;;;26.70;73.70;;;;;;5094677;28;20284;-68
2023/09/19 08:02:18;;;;;;;;;;;26.60;74.10;;;;;;5086850;28;19944;-67
2023/09/19 08:04:48;;;;;;;;;;;26.50;74.40;;;;;;5094560;28;20003;-67
2023/09/19 08:07:15;;;;;;;;;;;26.40;74.80;;;;;;5094683;28;19918;-66
2023/09/19 08:09:46;;;;;;;;;;;26.40;75.10;;;;;;5093799;28;19909;-67
2023/09/19 08:12:12;;;;;;;;;;;26.30;75.30;;;;;;5087748;28;19948;-67
2023/09/19 08:14:41;;;;;;;;;;;26.10;75.60;;;;;;5093150;28;19919;-67
2023/09/19 08:17:11;;;;;;;;;;;26.00;76.00;;;;;;5094990;28;20030;-66
2023/09/19 08:19:41;;;;;;;;;;;25.90;76.50;;;;;;5092566;28;20349;-68
2023/09/19 08:22:10;;;;;;;;;;;25.80;76.90;;;;;;5088469;28;19920;-67
2023/09/19 08:24:37;;;;;;;;;;;25.70;77.40;;;;;;5091988;28;19920;-68
2023/09/19 08:27:05;;;;;;;;;;;25.60;77.80;;;;;;5094985;28;19908;-68
2023/09/19 08:29:32;;;;;;;;;;;25.50;78.20;;;;;;5091377;28;19912;-68
2023/09/19 08:31:59;;;;;;;;;;;25.40;78.70;;;;;;5088822;28;19915;-67
2023/09/19 08:34:26;;;;;;;;;;;25.40;78.90;;;;;;5089801;28;19919;-67
2023/09/19 08:36:56;;;;;;;;;;;25.40;79.30;;;;;;5094390;28;19908;-68
2023/09/19 08:39:23;;;;;;;;;;;25.40;79.50;;;;;;5089807;28;20410;-67
2023/09/19 08:41:50;;;;;;;;;;;25.40;79.90;;;;;;5090690;28;19908;-67
2023/09/19 08:44:19;;;;;;;;;;;25.40;80.10;;;;;;5087643;28;19913;-70
2023/09/19 08:46:46;;;;;;;;;;;25.40;80.20;;;;;;5094324;28;19951;-72
2023/09/19 08:49:30;;;;;;;;;;;25.30;80.50;;;;;;5090436;28;19955;-67
2023/09/19 08:52:03;;;;;;;;;;;25.30;81.00;;;;;;5089146;28;20264;-66
2023/09/19 08:54:33;;;;;;;;;;;25.20;81.00;;;;;;5088618;28;19955;-66
2023/09/19 08:57:08;;;;;;;;;;;25.10;80.90;;;;;;5093443;28;19916;-67
2023/09/19 08:59:36;;;;;;;;;;;25.00;81.70;;;;;;5088763;28;19920;-74
2023/09/19 09:02:03;;;;;;;;;;;24.90;82.30;;;;;;5088485;28;19909;-72
2023/09/19 09:04:30;;;;;;;;;;;24.90;82.50;;;;;;5087973;28;19912;-66
2023/09/19 09:06:58;;;;;;;;;;;24.90;82.40;;;;;;5093772;28;19953;-67
2023/09/19 09:09:24;;;;;;;;;;;24.80;82.60;;;;;;5087921;28;19923;-72
2023/09/19 09:11:52;;;;;;;;;;;24.80;83.10;;;;;;5090068;28;19966;-67
2023/09/19 09:14:21;;;;;;;;;;;24.80;83.10;;;;;;5090290;28;20348;-69
2023/09/19 09:16:48;;;;;;;;;;;24.80;83.40;;;;;;5076571;28;20074;-69
2023/09/19 09:19:23;;;;;;;;;;;24.80;83.50;;;;;;5084137;28;19968;-69
2023/09/19 09:21:51;;;;;;;;;;;24.80;83.90;;;;;;5089420;28;20388;-68
2023/09/19 09:24:26;;;;;;;;;;;24.70;84.20;;;;;;5095778;28;19993;-71
2023/09/19 09:26:53;;;;;;;;;;;24.80;84.60;;;;;;5113873;28;20045;-69
2023/09/19 09:29:39;;;;;;;;;;;24.70;84.50;;;;;;5089250;28;19938;-69
2023/09/19 09:32:24;;;;;;;;;;;24.70;83.90;;;;;;5087199;28;19909;-69
2023/09/19 09:34:52;;;;;;;;;;;24.60;83.90;;;;;;5088727;28;19916;-67
2023/09/19 09:37:20;;;;;;;;;;;24.60;83.30;;;;;;5091286;28;19912;-69
2023/09/19 09:42:42;;;;;;;;;;;24.50;83.40;;;;;;5081641;28;19909;-68
2023/09/19 09:45:48;;;;;;;;;;;24.50;83.70;;;;;;5090110;28;19926;-72
2023/09/19 09:48:14;;;;;;;;;;;24.40;84.30;;;;;;5084982;28;19921;-69
2023/09/19 09:50:56;;;;;;;;;;;24.40;84.30;;;;;;5071878;28;20329;-69
2023/09/19 09:53:29;;;;;;;;;;;24.30;83.60;;;;;;5073940;28;20388;-67
2023/09/19 09:56:13;;;;;;;;;;;24.20;82.80;;;;;;5092871;28;20369;-68
2023/09/19 09:58:49;;;;;;;;;;;24.20;83.00;;;;;;5084658;28;19920;-68
2023/09/19 10:01:16;;;;;;;;;;;24.10;83.00;;;;;;5092716;28;19912;-67
2023/09/19 10:03:49;;;;;;;;;;;24.10;83.20;;;;;;5077165;28;19916;-67
2023/09/19 10:06:25;;;;;;;;;;;24.10;83.00;;;;;;5093099;28;19912;-67
2023/09/19 10:09:10;;;;;;;;;;;24.10;82.80;;;;;;5084039;28;19912;-66
2023/09/19 10:12:01;;;;;;;;;;;24.10;82.80;;;;;;5090374;28;20287;-69
2023/09/19 10:14:31;;;;;;;;;;;24.10;83.00;;;;;;5086825;28;20365;-66
2023/09/19 10:17:03;;;;;;;;;;;24.10;82.80;;;;;;5112850;28;19939;-69
2023/09/19 10:19:33;;;;;;;;;;;24.10;82.70;;;;;;5083977;28;19916;-67
2023/09/19 10:22:01;;;;;;;;;;;24.10;83.10;;;;;;5085930;28;19969;-67
2023/09/19 10:24:28;;;;;;;;;;;24.10;82.70;;;;;;5080258;28;19923;-68
2023/09/19 10:26:55;;;;;;;;;;;24.00;82.60;;;;;;5092636;28;20266;-71
2023/09/19 10:29:22;;;;;;;;;;;24.00;83.00;;;;;;5082201;28;19939;-69
2023/09/19 10:31:50;;;;;;;;;;;24.00;82.40;;;;;;5092654;28;19919;-67
2023/09/19 10:34:17;;;;;;;;;;;23.90;82.50;;;;;;5092726;28;19912;-70
2023/09/19 10:36:47;;;;;;;;;;;23.80;83.00;;;;;;5092430;28;19909;-67
2023/09/19 10:39:18;;;;;;;;;;;23.80;83.10;;;;;;5081444;28;20030;-66
2023/09/19 10:41:53;;;;;;;;;;;23.70;83.40;;;;;;5088877;28;19943;-67
2023/09/19 10:44:32;;;;;;;;;;;23.70;83.50;;;;;;5079243;28;19913;-66
2023/09/19 10:46:59;;;;;;;;;;;23.60;83.60;;;;;;5091880;28;19948;-66
2023/09/19 10:49:26;;;;;;;;;;;23.50;83.30;;;;;;5080624;28;19926;-66
2023/09/19 10:51:56;;;;;;;;;;;23.40;83.10;;;;;;5087729;28;19908;-69
2023/09/19 10:54:26;;;;;;;;;;;23.40;82.40;;;;;;5078896;28;19912;-69
2023/09/19 10:56:53;;;;;;;;;;;23.40;82.00;;;;;;5092241;28;19912;-66
2023/09/19 10:59:24;;;;;;;;;;;23.30;81.80;;;;;;5080032;28;19912;-65
2023/09/19 11:01:56;;;;;;;;;;;23.40;81.90;;;;;;5090383;28;19915;-65
2023/09/19 11:04:38;;;;;;;;;;;23.40;82.10;;;;;;5084637;28;19919;-69
2023/09/19 11:07:10;;;;;;;;;;;23.50;81.60;;;;;;5078637;28;19912;-68
2023/09/19 11:10:04;;;;;;;;;;;23.50;81.90;;;;;;5086233;28;19916;-69
2023/09/19 11:12:31;;;;;;;;;;;23.40;82.40;;;;;;5087697;28;19931;-68
2023/09/19 11:14:58;;;;;;;;;;;23.40;82.60;;;;;;5099664;28;20313;-66
2023/09/19 11:17:31;;;;;;;;;;;23.30;82.90;;;;;;5114955;28;20052;-68
2023/09/19 11:25:30;;;;;;;;;;;23.10;80.00;;;;;;5091824;28;20004;-70
2023/09/19 11:28:08;;;;;;;;;;;23.20;80.30;;;;;;5092319;28;19920;-66
2023/09/19 11:30:39;;;;;;;;;;;23.20;79.40;;;;;;5093352;28;19987;-66
2023/09/19 11:33:28;;;;;;;;;;;23.30;79.80;;;;;;5084090;28;19912;-68
2023/09/19 11:36:01;;;;;;;;;;;23.30;79.30;;;;;;5095826;28;19920;-67
2023/09/19 11:38:45;;;;;;;;;;;23.20;80.80;;;;;;5097076;28;20011;-69
2023/09/19 11:41:28;;;;;;;;;;;23.30;79.20;;;;;;5099108;28;19912;-66
2023/09/19 11:44:06;;;;;;;;;;;23.30;77.90;;;;;;5099340;28;20379;-68
2023/09/19 11:46:58;;;;;;;;;;;23.30;77.10;;;;;;5098956;28;19914;-71
2023/09/19 11:49:29;;;;;;;;;;;23.30;77.00;;;;;;5096474;28;20408;-66
2023/09/19 11:51:57;;;;;;;;;;;23.30;77.60;;;;;;5098985;28;19909;-69
2023/09/19 11:54:31;;;;;;;;;;;23.20;78.10;;;;;;5099014;28;19918;-67
2023/09/19 11:56:58;;;;;;;;;;;23.20;78.60;;;;;;5098922;28;19916;-66
2023/09/19 11:59:29;;;;;;;;;;;23.20;78.70;;;;;;5098895;28;19912;-66
2023/09/19 12:02:00;;;;;;;;;;;23.10;79.30;;;;;;5098721;28;19908;-66
2023/09/19 12:04:32;;;;;;;;;;;23.00;79.70;;;;;;5097994;28;19916;-66
2023/09/19 12:06:59;;;;;;;;;;;22.90;80.20;;;;;;5098509;28;19912;-69
2023/09/19 12:09:27;;;;;;;;;;;22.80;80.90;;;;;;5098585;28;19968;-66
2023/09/19 12:11:53;;;;;;;;;;;22.70;81.70;;;;;;5098761;28;19908;-66
2023/09/19 12:14:25;;;;;;;;;;;22.60;82.30;;;;;;5095410;28;19908;-65
2023/09/19 12:16:55;;;;;;;;;;;22.60;82.00;;;;;;5095347;28;19915;-66
2023/09/19 12:19:23;;;;;;;;;;;22.50;82.60;;;;;;5095389;28;19916;-69
2023/09/19 12:22:05;;;;;;;;;;;22.40;82.30;;;;;;5085997;28;20011;-68
2023/09/19 12:24:34;;;;;;;;;;;22.40;82.40;;;;;;5083505;28;20266;-66
2023/09/19 12:27:05;;;;;;;;;;;22.30;82.50;;;;;;5091662;28;19913;-67
2023/09/19 12:29:34;;;;;;;;;;;22.30;82.70;;;;;;5094421;28;19908;-67
2023/09/19 12:32:03;;;;;;;;;;;22.20;82.30;;;;;;5094773;28;19915;-66
2023/09/19 12:34:34;;;;;;;;;;;22.10;82.50;;;;;;5084614;28;19919;-65
2023/09/19 12:37:27;;;;;;;;;;;22.10;83.30;;;;;;5088530;28;20360;-66
2023/09/19 12:39:54;;;;;;;;;;;22.10;83.40;;;;;;5091365;28;19908;-66
2023/09/19 12:42:28;;;;;;;;;;;22.00;83.60;;;;;;5091036;28;19915;-66
2023/09/19 12:44:59;;;;;;;;;;;22.00;83.60;;;;;;5093329;28;19999;-65
2023/09/19 12:47:28;;;;;;;;;;;21.90;83.40;;;;;;5094345;28;20378;-66
2023/09/19 12:50:16;;;;;;;;;;;21.90;84.70;;;;;;5094561;28;19916;-65
2023/09/19 12:52:47;;;;;;;;;;;21.80;85.00;;;;;;5094511;28;19912;-66
2023/09/19 12:55:26;;;;;;;;;;;21.80;85.00;;;;;;5094369;28;20318;-66
2023/09/19 12:58:03;;;;;;;;;;;21.70;84.40;;;;;;5092979;28;19916;-66
2023/09/19 13:00:34;;;;;;;;;;;21.70;84.40;;;;;;5094373;28;19908;-68
2023/09/19 13:03:37;;;;;;;;;;;21.60;84.20;;;;;;5094899;28;20376;-70
2023/09/19 13:06:04;;;;;;;;;;;21.60;84.30;;;;;;5055739;28;19908;-68
2023/09/19 13:08:38;;;;;;;;;;;21.60;85.20;;;;;;5090876;28;19908;-65
2023/09/19 13:11:09;;;;;;;;;;;21.50;84.60;;;;;;5095159;28;19915;-66
2023/09/19 13:13:53;;;;;;;;;;;21.50;84.60;;;;;;5094847;28;20357;-68
2023/09/19 13:16:25;;;;;;;;;;;21.40;84.70;;;;;;5095190;28;19915;-66
2023/09/19 13:18:53;;;;;;;;;;;21.40;84.10;;;;;;5093514;28;19916;-67
2023/09/19 13:21:33;;;;;;;;;;;21.40;83.90;;;;;;5094476;28;19908;-67
2023/09/19 13:24:33;;;;;;;;;;;21.30;84.10;;;;;;5093867;28;19915;-68
2023/09/19 13:27:00;;;;;;;;;;;21.30;82.90;;;;;;5090551;28;19908;-67
2023/09/19 13:29:26;;;;;;;;;;;21.20;82.70;;;;;;5094383;28;19908;-70
2023/09/19 13:31:53;;;;;;;;;;;21.30;82.60;;;;;;5093600;28;20364;-67
2023/09/19 13:34:20;;;;;;;;;;;21.30;82.90;;;;;;5094619;28;19940;-66
2023/09/19 13:36:50;;;;;;;;;;;21.20;81.70;;;;;;5094727;28;19913;-67
2023/09/19 13:39:17;;;;;;;;;;;21.20;81.40;;;;;;5094704;28;19977;-67
2023/09/19 13:41:50;;;;;;;;;;;21.20;80.80;;;;;;5094807;28;19912;-69
2023/09/19 13:44:17;;;;;;;;;;;21.20;77.70;;;;;;5094905;28;20357;-69
2023/09/19 13:46:45;;;;;;;;;;;21.30;75.60;;;;;;5094780;28;19918;-67
2023/09/19 13:49:12;;;;;;;;;;;21.40;77.20;;;;;;5093695;28;20019;-66
2023/09/19 13:51:39;;;;;;;;;;;21.40;73.30;;;;;;5094198;28;19908;-69
2023/09/19 13:54:06;;;;;;;;;;;21.50;73.30;;;;;;5094397;28;19912;-67
2023/09/19 13:56:33;;;;;;;;;;;21.60;75.00;;;;;;5094261;28;20298;-67
2023/09/19 13:59:00;;;;;;;;;;;21.70;74.40;;;;;;5093744;28;19916;-69
2023/09/19 14:01:27;;;;;;;;;;;21.70;71.60;;;;;;5093450;28;19908;-69
2023/09/19 14:03:56;;;;;;;;;;;21.70;72.30;;;;;;5093468;28;19915;-67
2023/09/19 14:06:23;;;;;;;;;;;21.80;71.00;;;;;;5093482;28;20045;-66
2023/09/19 14:08:50;;;;;;;;;;;21.80;70.90;;;;;;5093459;28;19908;-67
2023/09/19 14:11:17;;;;;;;;;;;21.80;69.30;;;;;;5093498;28;19944;-67
2023/09/19 14:13:48;;;;;;;;;;;21.90;68.20;;;;;;5093424;28;19999;-66
2023/09/19 14:16:17;;;;;;;;;;;21.90;68.70;;;;;;5093043;28;20293;-66
2023/09/19 14:18:45;;;;;;;;;;;22.00;67.20;;;;;;5092788;28;19916;-65
2023/09/19 14:21:12;;;;;;;;;;;22.10;67.00;;;;;;5093236;28;19916;-68
2023/09/19 14:23:39;;;;;;;;;;;22.20;65.70;;;;;;5093874;28;20261;-67
2023/09/19 14:26:05;;;;;;;;;;;22.30;65.50;;;;;;5093193;28;19908;-68
2023/09/19 14:28:35;;;;;;;;;;;22.30;65.20;;;;;;5093154;28;19908;-65
2023/09/19 14:31:06;;;;;;;;;;;22.40;65.00;;;;;;5093271;28;19905;-66
2023/09/19 14:33:33;;;;;;;;;;;22.50;64.80;;;;;;5093160;28;19908;-66
2023/09/19 14:36:03;;;;;;;;;;;22.50;65.40;;;;;;5092873;28;19908;-65
2023/09/19 14:38:30;;;;;;;;;;;22.50;64.40;;;;;;5092422;28;19916;-66
2023/09/19 14:41:00;;;;;;;;;;;22.50;63.80;;;;;;5092876;28;19977;-67